Bangor, Michigan
Current Conditions -  °F | °C
As of 3:54 PM on Thursday 27 Nov 2014 (Local Time) from KLWA Reporting Station
Overcast Overcast  
Wind Chill: 21°   Ceiling: 4600
Heat Index: 31°   Visibility: 10mi
Dew Point: 22°   Wind: 13mph
Humidity: 70%   Direction: 320°NW
Pressure: 30.28"   Gusts: 25mph
Location:  42.31°N, 86.11°W
Report Text: KLWA 272054Z AUTO 32011G22KT 10SM SCT023 SCT030 OVC046 M01/M06 A3028 RMK AO2 T10081056
Loading
Personal Weather Stations






























Interactive Weather Map New forecast layout! Learn more

10-Day Weather Forecast

Advertisements
Track Severe Weather on mobile